KMHE/MHE METAR and TAF weather

Enter ICAO airport designator
Station Type Date Time Source
KMHE METAR 2019/10/23 01:53 UTC NOAA

KMHE 230153Z AUTO 22004KT 10SM CLR 05/01 A2981 RMK AO2 SLP105 T00500011


Station Type Date Time Source
KMHE Decoded METAR 2019/10/23 01:53 UTC NOAA

MITCHELL MUNICIPAL AIRPORT, SD, United States (KMHE) 43-46N 98-02W
Oct 22, 2019 - 09:53 PM EDT / 2019.10.23 0153 UTC
Wind: from the SW (220 degrees) at 5 MPH (4 KT):0
Visibility: 10 mile(s):0
Sky conditions: clear
Temperature: 41.0 F (5.0 C)
Dew Point: 34.0 F (1.1 C)
Relative Humidity: 75%
Pressure (altimeter): 29.81 in. Hg (1009 hPa)
ob: KMHE 230153Z AUTO 22004KT 10SM CLR 05/01 A2981 RMK AO2 SLP105 T00500011
cycle: 2

Station Type Date Time Source
KMHE TAF UTC NOAA

Error!

Example: see airport list